Terminal Aerodrome Forecast
Issued by NWS

Home | Current Version | Previous Version | Text Only | Print | Product List | Glossary On
Versions: 1 2 3 4 5 6 7 8 9 10 11 12 13 14 15 16 17
000
FTAK31 PAJN 222300
TAFAJN
TAF
PAJN 222321Z 2300/2324 12013KT P6SM VCSH FEW020 BKN040 OVC070
     FM230200 08004KT P6SM SCT035 OVC060
     FM230700 07005KT P6SM BCFG SCT004 SCT040 BKN070=

USA.gov is the U.S. government's official web portal to all federal, state and local government web resources and services.